San Diego, California
Current Conditions -  °F | °C
As of 10:51 AM on Thursday 23 Oct 2014 (Local Time) from KSAN Reporting Station
Scattered Clouds Scattered Clouds  
Wind Chill: 71°   Ceiling: Unl
Heat Index: 71°   Visibility: 7mi
Dew Point: 60°   Wind: 6mph
Humidity: 68%   Direction: 320°NW
Pressure: 30.01"   Gusts: NA
Location:  32.72°N, 117.16°W
Report Text: KSAN 231751Z 32005KT 7SM FEW003 SCT200 22/16 A3001 RMK AO2 SLP160 T02170156 10217 20167 51010
Loading
Personal Weather Stations






























Interactive Weather Map
Tropical Storm Tracking
New forecast layout! Learn more

10-Day Weather Forecast

Advertisements
Track Severe Weather on mobile